sensor_id;sensor_type;location;lat;lon;timestamp;P1;durP1;ratioP1;P2;durP2;ratioP2
13855;SDS011;6998;53.608;9.958;2022-09-29T00:02:19;14.73;;;11.27;;
13855;SDS011;6998;53.608;9.958;2022-09-29T00:04:47;12.47;;;11.00;;
13855;SDS011;6998;53.608;9.958;2022-09-29T00:07:14;13.07;;;10.97;;
13855;SDS011;6998;53.608;9.958;2022-09-29T00:09:40;13.70;;;10.87;;
13855;SDS011;6998;53.608;9.958;2022-09-29T00:12:07;12.97;;;11.07;;
13855;SDS011;6998;53.608;9.958;2022-09-29T00:14:34;13.53;;;11.20;;
13855;SDS011;6998;53.608;9.958;2022-09-29T00:17:00;12.87;;;11.33;;
13855;SDS011;6998;53.608;9.958;2022-09-29T00:19:27;14.63;;;12.33;;
13855;SDS011;6998;53.608;9.958;2022-09-29T00:21:56;17.80;;;12.33;;
13855;SDS011;6998;53.608;9.958;2022-09-29T00:24:22;14.27;;;11.50;;
13855;SDS011;6998;53.608;9.958;2022-09-29T00:26:50;15.33;;;12.70;;
13855;SDS011;6998;53.608;9.958;2022-09-29T00:29:17;16.90;;;13.37;;
13855;SDS011;6998;53.608;9.958;2022-09-29T00:31:43;14.57;;;12.70;;
13855;SDS011;6998;53.608;9.958;2022-09-29T00:34:10;19.07;;;12.40;;
13855;SDS011;6998;53.608;9.958;2022-09-29T00:36:37;14.73;;;12.00;;
13855;SDS011;6998;53.608;9.958;2022-09-29T00:39:06;13.70;;;11.20;;
13855;SDS011;6998;53.608;9.958;2022-09-29T00:41:34;14.27;;;12.13;;
13855;SDS011;6998;53.608;9.958;2022-09-29T00:44:03;13.53;;;11.10;;
13855;SDS011;6998;53.608;9.958;2022-09-29T00:46:39;13.43;;;11.03;;
13855;SDS011;6998;53.608;9.958;2022-09-29T00:49:11;13.50;;;10.67;;
13855;SDS011;6998;53.608;9.958;2022-09-29T00:51:42;14.17;;;11.13;;
13855;SDS011;6998;53.608;9.958;2022-09-29T00:54:13;13.63;;;10.37;;
13855;SDS011;6998;53.608;9.958;2022-09-29T00:56:41;11.77;;;10.50;;
13855;SDS011;6998;53.608;9.958;2022-09-29T00:59:11;11.07;;;9.73;;
13855;SDS011;6998;53.608;9.958;2022-09-29T01:01:42;11.20;;;9.83;;
13855;SDS011;6998;53.608;9.958;2022-09-29T01:04:09;11.00;;;9.23;;
13855;SDS011;6998;53.608;9.958;2022-09-29T01:06:39;12.90;;;10.50;;
13855;SDS011;6998;53.608;9.958;2022-09-29T01:09:10;12.57;;;9.80;;
13855;SDS011;6998;53.608;9.958;2022-09-29T01:11:41;11.47;;;9.47;;
13855;SDS011;6998;53.608;9.958;2022-09-29T01:14:08;12.70;;;9.37;;
13855;SDS011;6998;53.608;9.958;2022-09-29T01:16:37;11.57;;;8.90;;
13855;SDS011;6998;53.608;9.958;2022-09-29T01:19:06;9.83;;;8.17;;
13855;SDS011;6998;53.608;9.958;2022-09-29T01:21:38;11.13;;;8.87;;
13855;SDS011;6998;53.608;9.958;2022-09-29T01:24:23;9.73;;;8.73;;
13855;SDS011;6998;53.608;9.958;2022-09-29T01:27:23;9.60;;;7.80;;
13855;SDS011;6998;53.608;9.958;2022-09-29T01:30:14;10.60;;;8.77;;
13855;SDS011;6998;53.608;9.958;2022-09-29T01:32:49;10.73;;;8.77;;
13855;SDS011;6998;53.608;9.958;2022-09-29T01:35:37;9.73;;;8.67;;
13855;SDS011;6998;53.608;9.958;2022-09-29T01:38:13;10.97;;;9.50;;
13855;SDS011;6998;53.608;9.958;2022-09-29T01:40:51;12.13;;;10.10;;
13855;SDS011;6998;53.608;9.958;2022-09-29T01:43:26;13.73;;;10.43;;
13855;SDS011;6998;53.608;9.958;2022-09-29T01:46:00;12.00;;;10.33;;
13855;SDS011;6998;53.608;9.958;2022-09-29T01:48:33;10.57;;;9.47;;
13855;SDS011;6998;53.608;9.958;2022-09-29T01:51:04;14.20;;;11.13;;
13855;SDS011;6998;53.608;9.958;2022-09-29T01:53:34;12.30;;;9.77;;
13855;SDS011;6998;53.608;9.958;2022-09-29T01:56:06;13.70;;;10.43;;
13855;SDS011;6998;53.608;9.958;2022-09-29T01:58:37;13.47;;;10.43;;
13855;SDS011;6998;53.608;9.958;2022-09-29T02:01:08;12.90;;;10.30;;
13855;SDS011;6998;53.608;9.958;2022-09-29T02:03:40;11.73;;;9.93;;
13855;SDS011;6998;53.608;9.958;2022-09-29T02:06:13;13.53;;;10.80;;
13855;SDS011;6998;53.608;9.958;2022-09-29T02:08:43;12.20;;;10.43;;
13855;SDS011;6998;53.608;9.958;2022-09-29T02:11:16;11.57;;;9.73;;
13855;SDS011;6998;53.608;9.958;2022-09-29T02:13:44;14.73;;;10.20;;
13855;SDS011;6998;53.608;9.958;2022-09-29T02:16:15;12.50;;;10.47;;
13855;SDS011;6998;53.608;9.958;2022-09-29T02:18:49;13.57;;;10.00;;
13855;SDS011;6998;53.608;9.958;2022-09-29T02:21:19;10.77;;;9.63;;
13855;SDS011;6998;53.608;9.958;2022-09-29T02:23:47;12.77;;;10.53;;
13855;SDS011;6998;53.608;9.958;2022-09-29T02:26:14;12.57;;;9.90;;
13855;SDS011;6998;53.608;9.958;2022-09-29T02:28:42;11.07;;;9.87;;
13855;SDS011;6998;53.608;9.958;2022-09-29T02:31:10;11.77;;;10.10;;
13855;SDS011;6998;53.608;9.958;2022-09-29T02:33:37;13.60;;;10.73;;
13855;SDS011;6998;53.608;9.958;2022-09-29T02:36:07;13.07;;;10.20;;
13855;SDS011;6998;53.608;9.958;2022-09-29T02:38:46;11.10;;;9.33;;
13855;SDS011;6998;53.608;9.958;2022-09-29T02:41:22;12.50;;;10.53;;
13855;SDS011;6998;53.608;9.958;2022-09-29T02:49:57;11.57;;;10.07;;
13855;SDS011;6998;53.608;9.958;2022-09-29T02:52:45;11.30;;;9.60;;
13855;SDS011;6998;53.608;9.958;2022-09-29T02:55:18;10.97;;;9.80;;
13855;SDS011;6998;53.608;9.958;2022-09-29T02:57:48;12.93;;;10.40;;
13855;SDS011;6998;53.608;9.958;2022-09-29T03:00:19;13.53;;;10.90;;
13855;SDS011;6998;53.608;9.958;2022-09-29T03:02:46;11.23;;;9.70;;
13855;SDS011;6998;53.608;9.958;2022-09-29T03:05:13;11.13;;;9.53;;
13855;SDS011;6998;53.608;9.958;2022-09-29T03:07:43;11.47;;;9.83;;
13855;SDS011;6998;53.608;9.958;2022-09-29T03:10:11;13.73;;;9.60;;
13855;SDS011;6998;53.608;9.958;2022-09-29T03:12:39;13.57;;;10.23;;
13855;SDS011;6998;53.608;9.958;2022-09-29T03:15:07;11.73;;;9.87;;
13855;SDS011;6998;53.608;9.958;2022-09-29T03:17:36;11.10;;;9.50;;
13855;SDS011;6998;53.608;9.958;2022-09-29T03:20:03;12.20;;;10.03;;
13855;SDS011;6998;53.608;9.958;2022-09-29T03:22:31;12.27;;;10.40;;
13855;SDS011;6998;53.608;9.958;2022-09-29T03:24:59;11.80;;;10.00;;
13855;SDS011;6998;53.608;9.958;2022-09-29T03:27:26;13.13;;;10.53;;
13855;SDS011;6998;53.608;9.958;2022-09-29T03:29:52;10.87;;;9.67;;
13855;SDS011;6998;53.608;9.958;2022-09-29T03:32:19;13.53;;;10.07;;
13855;SDS011;6998;53.608;9.958;2022-09-29T03:34:46;12.00;;;10.23;;
13855;SDS011;6998;53.608;9.958;2022-09-29T03:37:13;11.53;;;9.30;;
13855;SDS011;6998;53.608;9.958;2022-09-29T03:39:40;13.27;;;9.50;;
13855;SDS011;6998;53.608;9.958;2022-09-29T03:42:08;12.03;;;10.03;;
13855;SDS011;6998;53.608;9.958;2022-09-29T03:44:34;11.83;;;9.90;;
13855;SDS011;6998;53.608;9.958;2022-09-29T03:47:01;12.20;;;9.83;;
13855;SDS011;6998;53.608;9.958;2022-09-29T03:49:27;11.83;;;9.50;;
13855;SDS011;6998;53.608;9.958;2022-09-29T03:51:54;12.67;;;9.63;;
13855;SDS011;6998;53.608;9.958;2022-09-29T03:54:21;11.37;;;9.27;;
13855;SDS011;6998;53.608;9.958;2022-09-29T03:56:50;11.70;;;9.77;;
13855;SDS011;6998;53.608;9.958;2022-09-29T03:59:18;11.00;;;8.73;;
13855;SDS011;6998;53.608;9.958;2022-09-29T04:01:45;10.70;;;8.93;;
13855;SDS011;6998;53.608;9.958;2022-09-29T04:04:12;11.53;;;9.10;;
13855;SDS011;6998;53.608;9.958;2022-09-29T04:06:39;11.90;;;8.90;;
13855;SDS011;6998;53.608;9.958;2022-09-29T04:09:05;10.33;;;9.10;;
13855;SDS011;6998;53.608;9.958;2022-09-29T04:11:32;9.53;;;8.00;;
13855;SDS011;6998;53.608;9.958;2022-09-29T04:13:58;11.33;;;8.50;;
13855;SDS011;6998;53.608;9.958;2022-09-29T04:16:27;10.77;;;8.63;;
13855;SDS011;6998;53.608;9.958;2022-09-29T04:18:53;11.97;;;8.60;;
13855;SDS011;6998;53.608;9.958;2022-09-29T04:21:20;10.90;;;9.13;;
13855;SDS011;6998;53.608;9.958;2022-09-29T04:23:47;11.93;;;8.93;;
13855;SDS011;6998;53.608;9.958;2022-09-29T04:26:14;10.47;;;8.77;;
13855;SDS011;6998;53.608;9.958;2022-09-29T04:28:40;10.40;;;9.10;;
13855;SDS011;6998;53.608;9.958;2022-09-29T04:31:07;14.60;;;9.70;;
13855;SDS011;6998;53.608;9.958;2022-09-29T04:33:36;11.17;;;9.47;;
13855;SDS011;6998;53.608;9.958;2022-09-29T04:36:03;13.37;;;10.10;;
13855;SDS011;6998;53.608;9.958;2022-09-29T04:38:31;10.40;;;8.87;;
13855;SDS011;6998;53.608;9.958;2022-09-29T04:40:57;13.27;;;9.40;;
13855;SDS011;6998;53.608;9.958;2022-09-29T04:43:24;12.03;;;9.90;;
13855;SDS011;6998;53.608;9.958;2022-09-29T04:45:51;12.90;;;10.63;;
13855;SDS011;6998;53.608;9.958;2022-09-29T04:48:18;15.37;;;10.90;;
13855;SDS011;6998;53.608;9.958;2022-09-29T04:50:46;13.97;;;10.70;;
13855;SDS011;6998;53.608;9.958;2022-09-29T04:53:13;13.70;;;11.20;;
13855;SDS011;6998;53.608;9.958;2022-09-29T04:55:41;14.07;;;11.27;;
13855;SDS011;6998;53.608;9.958;2022-09-29T04:58:08;18.47;;;11.77;;
13855;SDS011;6998;53.608;9.958;2022-09-29T05:00:35;15.30;;;11.00;;
13855;SDS011;6998;53.608;9.958;2022-09-29T05:03:02;15.07;;;11.97;;
13855;SDS011;6998;53.608;9.958;2022-09-29T05:05:28;15.03;;;11.50;;
13855;SDS011;6998;53.608;9.958;2022-09-29T05:07:56;14.23;;;11.33;;
13855;SDS011;6998;53.608;9.958;2022-09-29T05:10:23;14.37;;;12.47;;
13855;SDS011;6998;53.608;9.958;2022-09-29T05:12:51;17.63;;;13.50;;
13855;SDS011;6998;53.608;9.958;2022-09-29T05:15:18;18.57;;;14.30;;
13855;SDS011;6998;53.608;9.958;2022-09-29T05:17:45;17.07;;;12.37;;
13855;SDS011;6998;53.608;9.958;2022-09-29T05:20:12;18.17;;;13.37;;
13855;SDS011;6998;53.608;9.958;2022-09-29T05:22:40;16.50;;;12.27;;
13855;SDS011;6998;53.608;9.958;2022-09-29T05:25:08;19.63;;;13.23;;
13855;SDS011;6998;53.608;9.958;2022-09-29T05:27:35;19.37;;;15.30;;
13855;SDS011;6998;53.608;9.958;2022-09-29T05:30:03;18.47;;;14.33;;
13855;SDS011;6998;53.608;9.958;2022-09-29T05:32:30;17.40;;;12.90;;
13855;SDS011;6998;53.608;9.958;2022-09-29T05:34:57;15.00;;;12.53;;
13855;SDS011;6998;53.608;9.958;2022-09-29T05:37:24;15.90;;;12.43;;
13855;SDS011;6998;53.608;9.958;2022-09-29T05:39:51;19.17;;;14.13;;
13855;SDS011;6998;53.608;9.958;2022-09-29T05:42:19;17.00;;;13.47;;
13855;SDS011;6998;53.608;9.958;2022-09-29T05:44:46;16.17;;;13.17;;
13855;SDS011;6998;53.608;9.958;2022-09-29T05:47:13;16.33;;;12.93;;
13855;SDS011;6998;53.608;9.958;2022-09-29T05:49:40;21.20;;;14.47;;
13855;SDS011;6998;53.608;9.958;2022-09-29T05:52:06;17.07;;;13.77;;
13855;SDS011;6998;53.608;9.958;2022-09-29T05:54:33;20.33;;;15.10;;
13855;SDS011;6998;53.608;9.958;2022-09-29T05:57:00;22.83;;;15.50;;
13855;SDS011;6998;53.608;9.958;2022-09-29T05:59:28;19.80;;;15.33;;
13855;SDS011;6998;53.608;9.958;2022-09-29T06:01:54;23.03;;;15.70;;
13855;SDS011;6998;53.608;9.958;2022-09-29T06:04:21;26.17;;;18.10;;
13855;SDS011;6998;53.608;9.958;2022-09-29T06:06:48;24.37;;;18.27;;
13855;SDS011;6998;53.608;9.958;2022-09-29T06:09:15;26.43;;;18.63;;
13855;SDS011;6998;53.608;9.958;2022-09-29T06:11:42;27.93;;;20.33;;
13855;SDS011;6998;53.608;9.958;2022-09-29T06:14:08;28.77;;;18.37;;
13855;SDS011;6998;53.608;9.958;2022-09-29T06:16:37;24.97;;;18.80;;
13855;SDS011;6998;53.608;9.958;2022-09-29T06:19:03;20.97;;;16.93;;
13855;SDS011;6998;53.608;9.958;2022-09-29T06:21:30;24.20;;;19.07;;
13855;SDS011;6998;53.608;9.958;2022-09-29T06:23:59;26.50;;;18.60;;
13855;SDS011;6998;53.608;9.958;2022-09-29T06:26:26;26.23;;;20.17;;
13855;SDS011;6998;53.608;9.958;2022-09-29T06:28:53;25.10;;;19.73;;
13855;SDS011;6998;53.608;9.958;2022-09-29T06:31:21;25.70;;;19.90;;
13855;SDS011;6998;53.608;9.958;2022-09-29T06:33:51;28.77;;;20.70;;
13855;SDS011;6998;53.608;9.958;2022-09-29T06:36:18;28.77;;;22.23;;
13855;SDS011;6998;53.608;9.958;2022-09-29T06:39:07;28.63;;;21.80;;
13855;SDS011;6998;53.608;9.958;2022-09-29T06:41:35;26.63;;;20.93;;
13855;SDS011;6998;53.608;9.958;2022-09-29T06:44:02;24.97;;;21.07;;
13855;SDS011;6998;53.608;9.958;2022-09-29T06:46:29;28.50;;;20.47;;
13855;SDS011;6998;53.608;9.958;2022-09-29T06:48:58;24.57;;;19.30;;
13855;SDS011;6998;53.608;9.958;2022-09-29T06:51:26;26.57;;;20.93;;
13855;SDS011;6998;53.608;9.958;2022-09-29T06:53:53;28.90;;;22.00;;
13855;SDS011;6998;53.608;9.958;2022-09-29T06:56:19;25.93;;;21.27;;
13855;SDS011;6998;53.608;9.958;2022-09-29T06:58:46;24.83;;;20.77;;
13855;SDS011;6998;53.608;9.958;2022-09-29T07:01:13;24.90;;;20.57;;
13855;SDS011;6998;53.608;9.958;2022-09-29T07:03:39;26.47;;;20.90;;
13855;SDS011;6998;53.608;9.958;2022-09-29T07:06:08;23.50;;;19.60;;
13855;SDS011;6998;53.608;9.958;2022-09-29T07:08:35;25.97;;;21.43;;
13855;SDS011;6998;53.608;9.958;2022-09-29T07:11:04;26.50;;;22.03;;
13855;SDS011;6998;53.608;9.958;2022-09-29T07:13:34;26.80;;;21.53;;
13855;SDS011;6998;53.608;9.958;2022-09-29T07:16:04;24.83;;;20.53;;
13855;SDS011;6998;53.608;9.958;2022-09-29T07:18:32;25.40;;;20.47;;
13855;SDS011;6998;53.608;9.958;2022-09-29T07:21:01;19.70;;;17.50;;
13855;SDS011;6998;53.608;9.958;2022-09-29T07:23:29;23.10;;;20.13;;
13855;SDS011;6998;53.608;9.958;2022-09-29T07:25:57;23.03;;;18.87;;
13855;SDS011;6998;53.608;9.958;2022-09-29T07:28:23;20.70;;;18.33;;
13855;SDS011;6998;53.608;9.958;2022-09-29T07:30:59;22.13;;;18.23;;
13855;SDS011;6998;53.608;9.958;2022-09-29T07:33:27;20.83;;;17.53;;
13855;SDS011;6998;53.608;9.958;2022-09-29T07:35:55;20.23;;;18.10;;
13855;SDS011;6998;53.608;9.958;2022-09-29T07:38:24;23.93;;;17.23;;
13855;SDS011;6998;53.608;9.958;2022-09-29T07:40:53;18.63;;;15.97;;
13855;SDS011;6998;53.608;9.958;2022-09-29T07:43:19;17.53;;;15.67;;
13855;SDS011;6998;53.608;9.958;2022-09-29T07:45:47;18.30;;;16.37;;
13855;SDS011;6998;53.608;9.958;2022-09-29T07:48:14;19.03;;;17.13;;
13855;SDS011;6998;53.608;9.958;2022-09-29T07:50:42;20.20;;;17.27;;
13855;SDS011;6998;53.608;9.958;2022-09-29T07:53:10;21.80;;;18.57;;
13855;SDS011;6998;53.608;9.958;2022-09-29T07:55:37;19.47;;;16.23;;
13855;SDS011;6998;53.608;9.958;2022-09-29T07:58:06;18.47;;;16.47;;
13855;SDS011;6998;53.608;9.958;2022-09-29T08:00:32;19.43;;;16.87;;
13855;SDS011;6998;53.608;9.958;2022-09-29T08:02:59;22.23;;;18.63;;
13855;SDS011;6998;53.608;9.958;2022-09-29T08:05:27;19.80;;;17.47;;
13855;SDS011;6998;53.608;9.958;2022-09-29T08:07:54;20.70;;;18.50;;
13855;SDS011;6998;53.608;9.958;2022-09-29T08:10:22;22.43;;;19.17;;
13855;SDS011;6998;53.608;9.958;2022-09-29T08:12:48;21.13;;;18.77;;
13855;SDS011;6998;53.608;9.958;2022-09-29T08:15:16;22.60;;;18.73;;
13855;SDS011;6998;53.608;9.958;2022-09-29T08:17:43;21.40;;;17.50;;
13855;SDS011;6998;53.608;9.958;2022-09-29T08:20:10;20.30;;;18.15;;
13855;SDS011;6998;53.608;9.958;2022-09-29T08:22:36;20.37;;;17.57;;
13855;SDS011;6998;53.608;9.958;2022-09-29T08:25:03;21.37;;;18.20;;
13855;SDS011;6998;53.608;9.958;2022-09-29T08:27:30;22.30;;;17.23;;
13855;SDS011;6998;53.608;9.958;2022-09-29T08:29:58;18.90;;;17.00;;
13855;SDS011;6998;53.608;9.958;2022-09-29T08:32:26;17.70;;;15.73;;
13855;SDS011;6998;53.608;9.958;2022-09-29T08:34:53;19.95;;;16.85;;
13855;SDS011;6998;53.608;9.958;2022-09-29T08:37:20;19.77;;;16.27;;
13855;SDS011;6998;53.608;9.958;2022-09-29T08:39:47;18.63;;;16.63;;
13855;SDS011;6998;53.608;9.958;2022-09-29T08:42:14;17.17;;;15.37;;
13855;SDS011;6998;53.608;9.958;2022-09-29T08:44:49;17.23;;;15.53;;
13855;SDS011;6998;53.608;9.958;2022-09-29T08:47:20;18.07;;;15.70;;
13855;SDS011;6998;53.608;9.958;2022-09-29T08:49:56;17.40;;;15.47;;
13855;SDS011;6998;53.608;9.958;2022-09-29T08:52:27;16.42;;;14.77;;
13855;SDS011;6998;53.608;9.958;2022-09-29T08:54:57;16.97;;;15.27;;
13855;SDS011;6998;53.608;9.958;2022-09-29T08:57:30;16.27;;;14.57;;
13855;SDS011;6998;53.608;9.958;2022-09-29T08:59:58;16.42;;;14.85;;
13855;SDS011;6998;53.608;9.958;2022-09-29T09:02:49;15.48;;;13.98;;
13855;SDS011;6998;53.608;9.958;2022-09-29T09:05:31;15.07;;;13.52;;
13855;SDS011;6998;53.608;9.958;2022-09-29T09:08:26;15.80;;;14.07;;
13855;SDS011;6998;53.608;9.958;2022-09-29T09:11:08;15.35;;;13.82;;
13855;SDS011;6998;53.608;9.958;2022-09-29T09:13:52;13.68;;;12.20;;
13855;SDS011;6998;53.608;9.958;2022-09-29T09:16:32;14.82;;;13.32;;
13855;SDS011;6998;53.608;9.958;2022-09-29T09:19:10;14.75;;;13.02;;
13855;SDS011;6998;53.608;9.958;2022-09-29T09:21:57;16.13;;;14.48;;
13855;SDS011;6998;53.608;9.958;2022-09-29T09:24:31;13.93;;;12.63;;
13855;SDS011;6998;53.608;9.958;2022-09-29T09:27:07;14.10;;;12.32;;
13855;SDS011;6998;53.608;9.958;2022-09-29T09:29:39;13.77;;;12.38;;
13855;SDS011;6998;53.608;9.958;2022-09-29T09:32:09;13.90;;;12.60;;
13855;SDS011;6998;53.608;9.958;2022-09-29T09:34:40;13.38;;;12.18;;
13855;SDS011;6998;53.608;9.958;2022-09-29T09:37:13;13.68;;;12.32;;
13855;SDS011;6998;53.608;9.958;2022-09-29T09:39:45;13.35;;;11.95;;
13855;SDS011;6998;53.608;9.958;2022-09-29T09:42:17;12.43;;;11.20;;
13855;SDS011;6998;53.608;9.958;2022-09-29T09:44:46;13.05;;;11.68;;
13855;SDS011;6998;53.608;9.958;2022-09-29T09:47:20;11.98;;;10.80;;
13855;SDS011;6998;53.608;9.958;2022-09-29T09:49:52;13.77;;;12.25;;
13855;SDS011;6998;53.608;9.958;2022-09-29T09:52:26;12.13;;;11.02;;
13855;SDS011;6998;53.608;9.958;2022-09-29T09:54:57;11.77;;;10.57;;
13855;SDS011;6998;53.608;9.958;2022-09-29T09:57:40;11.35;;;10.25;;
13855;SDS011;6998;53.608;9.958;2022-09-29T10:00:22;11.13;;;10.05;;
13855;SDS011;6998;53.608;9.958;2022-09-29T10:02:54;11.52;;;10.43;;
13855;SDS011;6998;53.608;9.958;2022-09-29T10:05:23;12.18;;;10.88;;
13855;SDS011;6998;53.608;9.958;2022-09-29T10:07:59;11.40;;;10.45;;
13855;SDS011;6998;53.608;9.958;2022-09-29T10:10:28;14.10;;;11.13;;
13855;SDS011;6998;53.608;9.958;2022-09-29T10:12:56;11.85;;;10.75;;
13855;SDS011;6998;53.608;9.958;2022-09-29T10:15:28;11.90;;;10.70;;
13855;SDS011;6998;53.608;9.958;2022-09-29T10:18:00;11.27;;;10.18;;
13855;SDS011;6998;53.608;9.958;2022-09-29T10:20:31;12.68;;;11.43;;
13855;SDS011;6998;53.608;9.958;2022-09-29T10:23:22;13.48;;;10.85;;
13855;SDS011;6998;53.608;9.958;2022-09-29T10:25:55;11.93;;;10.80;;
13855;SDS011;6998;53.608;9.958;2022-09-29T10:28:24;11.82;;;10.73;;
13855;SDS011;6998;53.608;9.958;2022-09-29T10:30:53;13.13;;;10.98;;
13855;SDS011;6998;53.608;9.958;2022-09-29T10:33:21;12.68;;;11.38;;
13855;SDS011;6998;53.608;9.958;2022-09-29T10:35:50;12.38;;;11.07;;
13855;SDS011;6998;53.608;9.958;2022-09-29T10:38:32;12.30;;;11.00;;
13855;SDS011;6998;53.608;9.958;2022-09-29T10:41:00;12.25;;;11.05;;
13855;SDS011;6998;53.608;9.958;2022-09-29T10:43:31;12.07;;;10.93;;
13855;SDS011;6998;53.608;9.958;2022-09-29T10:46:01;13.57;;;12.18;;
13855;SDS011;6998;53.608;9.958;2022-09-29T10:48:27;12.43;;;11.27;;
13855;SDS011;6998;53.608;9.958;2022-09-29T10:50:55;12.57;;;11.27;;
13855;SDS011;6998;53.608;9.958;2022-09-29T10:53:24;12.07;;;10.85;;
13855;SDS011;6998;53.608;9.958;2022-09-29T10:56:00;12.23;;;11.05;;
13855;SDS011;6998;53.608;9.958;2022-09-29T10:58:32;12.20;;;10.30;;
13855;SDS011;6998;53.608;9.958;2022-09-29T11:01:01;12.13;;;10.73;;
13855;SDS011;6998;53.608;9.958;2022-09-29T11:03:33;11.57;;;10.48;;
13855;SDS011;6998;53.608;9.958;2022-09-29T11:06:04;10.77;;;9.73;;
13855;SDS011;6998;53.608;9.958;2022-09-29T11:08:32;10.73;;;9.65;;
13855;SDS011;6998;53.608;9.958;2022-09-29T11:11:23;10.73;;;9.60;;
13855;SDS011;6998;53.608;9.958;2022-09-29T11:13:52;11.27;;;10.18;;
13855;SDS011;6998;53.608;9.958;2022-09-29T11:16:22;10.85;;;9.75;;
13855;SDS011;6998;53.608;9.958;2022-09-29T11:18:53;10.52;;;9.52;;
13855;SDS011;6998;53.608;9.958;2022-09-29T11:21:30;12.73;;;10.65;;
13855;SDS011;6998;53.608;9.958;2022-09-29T11:24:22;10.23;;;9.23;;
13855;SDS011;6998;53.608;9.958;2022-09-29T11:27:02;10.38;;;9.23;;
13855;SDS011;6998;53.608;9.958;2022-09-29T11:29:36;9.95;;;8.95;;
13855;SDS011;6998;53.608;9.958;2022-09-29T11:32:19;10.20;;;9.20;;
13855;SDS011;6998;53.608;9.958;2022-09-29T11:35:10;10.82;;;9.23;;
13855;SDS011;6998;53.608;9.958;2022-09-29T11:37:52;9.90;;;8.93;;
13855;SDS011;6998;53.608;9.958;2022-09-29T11:40:28;10.43;;;9.43;;
13855;SDS011;6998;53.608;9.958;2022-09-29T11:43:09;9.60;;;8.43;;
13855;SDS011;6998;53.608;9.958;2022-09-29T11:45:52;10.57;;;8.55;;
13855;SDS011;6998;53.608;9.958;2022-09-29T11:51:40;11.02;;;9.80;;
13855;SDS011;6998;53.608;9.958;2022-09-29T11:54:24;10.73;;;9.63;;
13855;SDS011;6998;53.608;9.958;2022-09-29T11:57:02;12.90;;;9.57;;
13855;SDS011;6998;53.608;9.958;2022-09-29T11:59:45;11.07;;;9.63;;
13855;SDS011;6998;53.608;9.958;2022-09-29T12:02:27;9.50;;;8.60;;
13855;SDS011;6998;53.608;9.958;2022-09-29T12:05:34;9.80;;;8.80;;
13855;SDS011;6998;53.608;9.958;2022-09-29T12:08:12;9.88;;;7.90;;
13855;SDS011;6998;53.608;9.958;2022-09-29T12:10:52;8.77;;;7.82;;
13855;SDS011;6998;53.608;9.958;2022-09-29T12:13:25;8.57;;;7.72;;
13855;SDS011;6998;53.608;9.958;2022-09-29T12:16:03;9.20;;;7.13;;
13855;SDS011;6998;53.608;9.958;2022-09-29T12:18:36;8.00;;;6.85;;
13855;SDS011;6998;53.608;9.958;2022-09-29T12:21:07;8.38;;;7.57;;
13855;SDS011;6998;53.608;9.958;2022-09-29T12:23:36;8.02;;;7.22;;
13855;SDS011;6998;53.608;9.958;2022-09-29T12:26:05;7.70;;;6.90;;
13855;SDS011;6998;53.608;9.958;2022-09-29T12:28:36;6.97;;;6.10;;
13855;SDS011;6998;53.608;9.958;2022-09-29T12:31:10;6.97;;;6.18;;
13855;SDS011;6998;53.608;9.958;2022-09-29T12:33:40;6.78;;;5.60;;
13855;SDS011;6998;53.608;9.958;2022-09-29T12:36:19;6.05;;;5.28;;
13855;SDS011;6998;53.608;9.958;2022-09-29T12:39:12;4.93;;;4.43;;
13855;SDS011;6998;53.608;9.958;2022-09-29T12:42:09;5.18;;;4.35;;
13855;SDS011;6998;53.608;9.958;2022-09-29T12:44:48;4.50;;;4.10;;
13855;SDS011;6998;53.608;9.958;2022-09-29T12:47:25;4.65;;;4.25;;
13855;SDS011;6998;53.608;9.958;2022-09-29T12:50:03;5.07;;;4.57;;
13855;SDS011;6998;53.608;9.958;2022-09-29T12:52:36;5.40;;;4.90;;
13855;SDS011;6998;53.608;9.958;2022-09-29T12:55:14;4.82;;;4.40;;
13855;SDS011;6998;53.608;9.958;2022-09-29T12:57:49;5.32;;;4.82;;
13855;SDS011;6998;53.608;9.958;2022-09-29T13:00:20;4.88;;;4.38;;
13855;SDS011;6998;53.608;9.958;2022-09-29T13:05:47;6.75;;;5.68;;
13855;SDS011;6998;53.608;9.958;2022-09-29T13:08:30;6.53;;;6.00;;
13855;SDS011;6998;53.608;9.958;2022-09-29T13:11:14;7.18;;;6.47;;
13855;SDS011;6998;53.608;9.958;2022-09-29T13:14:06;7.70;;;6.95;;
13855;SDS011;6998;53.608;9.958;2022-09-29T13:16:54;7.65;;;6.90;;
13855;SDS011;6998;53.608;9.958;2022-09-29T13:22:31;8.15;;;7.35;;
13855;SDS011;6998;53.608;9.958;2022-09-29T13:25:11;8.82;;;8.05;;
13855;SDS011;6998;53.608;9.958;2022-09-29T13:27:46;8.25;;;7.45;;
13855;SDS011;6998;53.608;9.958;2022-09-29T13:30:17;8.68;;;7.88;;
13855;SDS011;6998;53.608;9.958;2022-09-29T13:32:49;7.88;;;7.15;;
13855;SDS011;6998;53.608;9.958;2022-09-29T13:35:21;7.45;;;6.75;;
13855;SDS011;6998;53.608;9.958;2022-09-29T13:37:52;8.52;;;7.60;;
13855;SDS011;6998;53.608;9.958;2022-09-29T13:40:22;9.25;;;8.45;;
13855;SDS011;6998;53.608;9.958;2022-09-29T13:42:51;9.13;;;8.40;;
13855;SDS011;6998;53.608;9.958;2022-09-29T13:54:13;9.77;;;8.77;;
13855;SDS011;6998;53.608;9.958;2022-09-29T13:56:47;11.52;;;8.93;;
13855;SDS011;6998;53.608;9.958;2022-09-29T13:59:15;10.02;;;9.10;;
13855;SDS011;6998;53.608;9.958;2022-09-29T14:01:48;9.43;;;8.15;;
13855;SDS011;6998;53.608;9.958;2022-09-29T14:04:37;10.00;;;9.10;;
13855;SDS011;6998;53.608;9.958;2022-09-29T14:07:12;9.82;;;8.93;;
13855;SDS011;6998;53.608;9.958;2022-09-29T14:10:03;8.18;;;7.38;;
13855;SDS011;6998;53.608;9.958;2022-09-29T14:12:32;9.73;;;8.63;;
13855;SDS011;6998;53.608;9.958;2022-09-29T14:15:00;10.20;;;9.35;;
13855;SDS011;6998;53.608;9.958;2022-09-29T14:17:28;10.57;;;9.60;;
13855;SDS011;6998;53.608;9.958;2022-09-29T14:20:02;12.10;;;10.75;;
13855;SDS011;6998;53.608;9.958;2022-09-29T14:22:57;11.20;;;10.20;;
13855;SDS011;6998;53.608;9.958;2022-09-29T14:25:30;11.85;;;10.85;;
13855;SDS011;6998;53.608;9.958;2022-09-29T14:28:18;12.05;;;10.98;;
13855;SDS011;6998;53.608;9.958;2022-09-29T14:30:49;10.18;;;9.20;;
13855;SDS011;6998;53.608;9.958;2022-09-29T14:33:18;12.23;;;11.13;;
13855;SDS011;6998;53.608;9.958;2022-09-29T14:35:53;11.75;;;10.70;;
13855;SDS011;6998;53.608;9.958;2022-09-29T14:38:28;11.93;;;10.75;;
13855;SDS011;6998;53.608;9.958;2022-09-29T14:40:57;11.63;;;10.52;;
13855;SDS011;6998;53.608;9.958;2022-09-29T14:43:33;11.57;;;10.50;;
13855;SDS011;6998;53.608;9.958;2022-09-29T14:49:23;13.18;;;11.77;;
13855;SDS011;6998;53.608;9.958;2022-09-29T14:52:33;11.82;;;10.73;;
13855;SDS011;6998;53.608;9.958;2022-09-29T14:55:13;11.52;;;10.52;;
13855;SDS011;6998;53.608;9.958;2022-09-29T15:00:44;12.73;;;11.52;;
13855;SDS011;6998;53.608;9.958;2022-09-29T15:03:23;12.63;;;11.43;;
13855;SDS011;6998;53.608;9.958;2022-09-29T15:06:03;11.88;;;10.88;;
13855;SDS011;6998;53.608;9.958;2022-09-29T15:08:32;13.18;;;11.88;;
13855;SDS011;6998;53.608;9.958;2022-09-29T15:11:02;11.60;;;10.50;;
13855;SDS011;6998;53.608;9.958;2022-09-29T15:13:31;13.63;;;11.20;;
13855;SDS011;6998;53.608;9.958;2022-09-29T15:15:59;10.88;;;9.88;;
13855;SDS011;6998;53.608;9.958;2022-09-29T15:18:33;12.35;;;11.15;;
13855;SDS011;6998;53.608;9.958;2022-09-29T15:21:14;11.48;;;10.25;;
13855;SDS011;6998;53.608;9.958;2022-09-29T15:23:54;12.55;;;11.25;;
13855;SDS011;6998;53.608;9.958;2022-09-29T15:26:41;10.68;;;9.60;;
13855;SDS011;6998;53.608;9.958;2022-09-29T15:29:09;12.80;;;11.52;;
13855;SDS011;6998;53.608;9.958;2022-09-29T15:31:42;11.98;;;10.63;;
13855;SDS011;6998;53.608;9.958;2022-09-29T15:34:10;10.43;;;9.52;;
13855;SDS011;6998;53.608;9.958;2022-09-29T15:36:43;10.70;;;9.60;;
13855;SDS011;6998;53.608;9.958;2022-09-29T15:42:12;11.30;;;10.20;;